sensor_id;sensor_type;location;lat;lon;timestamp;pressure;altitude;pressure_sealevel;temperature;humidity
17209;BME280;8720;48.488;9.202;2024-03-08T00:01:51;96839.06;;;8.32;62.25
17209;BME280;8720;48.488;9.202;2024-03-08T00:04:19;96841.66;;;8.32;62.11
17209;BME280;8720;48.488;9.202;2024-03-08T00:06:46;96837.34;;;8.30;62.28
17209;BME280;8720;48.488;9.202;2024-03-08T00:09:14;96837.31;;;8.31;62.18
17209;BME280;8720;48.488;9.202;2024-03-08T00:11:41;96835.59;;;8.32;62.09
17209;BME280;8720;48.488;9.202;2024-03-08T00:14:10;96831.28;;;8.31;62.02
17209;BME280;8720;48.488;9.202;2024-03-08T00:16:38;96840.84;;;8.30;62.08
17209;BME280;8720;48.488;9.202;2024-03-08T00:19:09;96832.19;;;8.28;62.10
17209;BME280;8720;48.488;9.202;2024-03-08T00:21:37;96837.44;;;8.27;62.14
17209;BME280;8720;48.488;9.202;2024-03-08T00:24:05;96834.84;;;8.25;61.98
17209;BME280;8720;48.488;9.202;2024-03-08T00:26:32;96831.38;;;8.23;62.16
17209;BME280;8720;48.488;9.202;2024-03-08T00:29:00;96820.97;;;8.21;61.91
17209;BME280;8720;48.488;9.202;2024-03-08T00:31:28;96824.47;;;8.20;62.11
17209;BME280;8720;48.488;9.202;2024-03-08T00:33:57;96808.03;;;8.17;62.13
17209;BME280;8720;48.488;9.202;2024-03-08T00:36:25;96816.75;;;8.14;62.13
17209;BME280;8720;48.488;9.202;2024-03-08T00:38:53;96819.38;;;8.14;62.02
17209;BME280;8720;48.488;9.202;2024-03-08T00:41:20;96809.00;;;8.11;62.10
17209;BME280;8720;48.488;9.202;2024-03-08T00:43:47;96813.34;;;8.11;62.07
17209;BME280;8720;48.488;9.202;2024-03-08T00:46:17;96814.22;;;8.10;62.10
17209;BME280;8720;48.488;9.202;2024-03-08T00:48:45;96816.91;;;8.07;62.00
17209;BME280;8720;48.488;9.202;2024-03-08T00:51:13;96813.47;;;8.05;62.10
17209;BME280;8720;48.488;9.202;2024-03-08T00:53:41;96803.94;;;8.04;61.90
17209;BME280;8720;48.488;9.202;2024-03-08T00:56:09;96804.84;;;8.01;62.13
17209;BME280;8720;48.488;9.202;2024-03-08T00:58:37;96795.28;;;8.00;62.22
17209;BME280;8720;48.488;9.202;2024-03-08T01:01:04;96795.31;;;7.99;62.04
17209;BME280;8720;48.488;9.202;2024-03-08T01:03:32;96794.47;;;7.98;62.20
17209;BME280;8720;48.488;9.202;2024-03-08T01:06:02;96797.09;;;7.97;62.35
17209;BME280;8720;48.488;9.202;2024-03-08T01:08:30;96792.75;;;7.97;62.28
17209;BME280;8720;48.488;9.202;2024-03-08T01:10:57;96797.06;;;7.98;62.51
17209;BME280;8720;48.488;9.202;2024-03-08T01:13:25;96789.28;;;7.97;62.36
17209;BME280;8720;48.488;9.202;2024-03-08T01:15:52;96784.06;;;7.97;62.14
17209;BME280;8720;48.488;9.202;2024-03-08T01:18:20;96784.94;;;7.97;62.25
17209;BME280;8720;48.488;9.202;2024-03-08T01:20:47;96781.47;;;7.97;62.05
17209;BME280;8720;48.488;9.202;2024-03-08T01:23:16;96781.47;;;7.97;61.94
17209;BME280;8720;48.488;9.202;2024-03-08T01:25:43;96780.59;;;7.98;61.76
17209;BME280;8720;48.488;9.202;2024-03-08T01:28:11;96778.88;;;7.97;61.70
17209;BME280;8720;48.488;9.202;2024-03-08T01:30:38;96767.66;;;7.93;61.86
17209;BME280;8720;48.488;9.202;2024-03-08T01:33:06;96770.28;;;7.92;62.00
17209;BME280;8720;48.488;9.202;2024-03-08T01:35:33;96769.47;;;7.90;62.19
17209;BME280;8720;48.488;9.202;2024-03-08T01:38:01;96765.97;;;7.89;61.93
17209;BME280;8720;48.488;9.202;2024-03-08T01:40:32;96762.50;;;7.89;61.84
17209;BME280;8720;48.488;9.202;2024-03-08T01:43:18;96759.06;;;7.88;61.79
17209;BME280;8720;48.488;9.202;2024-03-08T01:45:46;96748.69;;;7.85;61.49
17209;BME280;8720;48.488;9.202;2024-03-08T01:48:14;96754.84;;;7.83;61.42
17209;BME280;8720;48.488;9.202;2024-03-08T01:50:42;96757.44;;;7.81;61.33
17209;BME280;8720;48.488;9.202;2024-03-08T01:53:10;96752.31;;;7.78;61.48
17209;BME280;8720;48.488;9.202;2024-03-08T01:55:40;96749.72;;;7.77;61.54
17209;BME280;8720;48.488;9.202;2024-03-08T01:58:10;96740.22;;;7.74;61.67
17209;BME280;8720;48.488;9.202;2024-03-08T02:00:40;96741.97;;;7.74;61.74
17209;BME280;8720;48.488;9.202;2024-03-08T02:03:08;96732.44;;;7.73;61.60
17209;BME280;8720;48.488;9.202;2024-03-08T02:05:36;96734.19;;;7.72;61.63
17209;BME280;8720;48.488;9.202;2024-03-08T02:08:06;96690.38;;;7.48;61.46
17209;BME280;8720;48.488;9.202;2024-03-08T02:10:34;96725.50;;;7.72;61.42
17209;BME280;8720;48.488;9.202;2024-03-08T02:13:03;96717.72;;;7.70;61.18
17209;BME280;8720;48.488;9.202;2024-03-08T02:15:52;96714.28;;;7.68;61.52
17209;BME280;8720;48.488;9.202;2024-03-08T02:18:21;96704.81;;;7.64;61.47
17209;BME280;8720;48.488;9.202;2024-03-08T02:20:50;96714.44;;;7.61;61.71
17209;BME280;8720;48.488;9.202;2024-03-08T02:23:18;96673.22;;;7.37;61.95
17209;BME280;8720;48.488;9.202;2024-03-08T02:25:46;96706.72;;;7.55;61.82
17209;BME280;8720;48.488;9.202;2024-03-08T02:28:14;96705.03;;;7.54;61.89
17209;BME280;8720;48.488;9.202;2024-03-08T02:30:41;96698.94;;;7.53;61.69
17209;BME280;8720;48.488;9.202;2024-03-08T02:33:08;96708.50;;;7.53;61.91
17209;BME280;8720;48.488;9.202;2024-03-08T02:35:36;96699.81;;;7.52;61.84
17209;BME280;8720;48.488;9.202;2024-03-08T02:38:05;96691.34;;;7.41;61.61
17209;BME280;8720;48.488;9.202;2024-03-08T02:40:33;96694.75;;;7.45;61.83
17209;BME280;8720;48.488;9.202;2024-03-08T02:43:00;96697.34;;;7.46;61.79
17209;BME280;8720;48.488;9.202;2024-03-08T02:45:27;96700.81;;;7.45;61.84
17209;BME280;8720;48.488;9.202;2024-03-08T02:47:55;96695.66;;;7.44;61.68
17209;BME280;8720;48.488;9.202;2024-03-08T02:50:23;96692.19;;;7.43;61.70
17209;BME280;8720;48.488;9.202;2024-03-08T02:52:51;96688.75;;;7.41;61.69
17209;BME280;8720;48.488;9.202;2024-03-08T02:55:20;96682.66;;;7.41;61.63
17209;BME280;8720;48.488;9.202;2024-03-08T02:57:47;96683.59;;;7.38;61.61
17209;BME280;8720;48.488;9.202;2024-03-08T03:05:40;96678.53;;;7.29;61.66
17209;BME280;8720;48.488;9.202;2024-03-08T03:08:07;96675.94;;;7.30;61.54
17209;BME280;8720;48.488;9.202;2024-03-08T03:10:37;96682.84;;;7.31;61.51
17209;BME280;8720;48.488;9.202;2024-03-08T03:13:04;96671.66;;;7.26;61.24
17209;BME280;8720;48.488;9.202;2024-03-08T03:15:32;96675.94;;;7.30;61.31
17209;BME280;8720;48.488;9.202;2024-03-08T03:18:00;96678.53;;;7.29;61.27
17209;BME280;8720;48.488;9.202;2024-03-08T03:20:28;96665.56;;;7.27;61.16
17209;BME280;8720;48.488;9.202;2024-03-08T03:22:59;96661.25;;;7.26;61.14
17209;BME280;8720;48.488;9.202;2024-03-08T03:25:28;96663.84;;;7.26;61.09
17209;BME280;8720;48.488;9.202;2024-03-08T03:28:01;96660.44;;;7.23;60.97
17209;BME280;8720;48.488;9.202;2024-03-08T03:30:29;96663.06;;;7.21;61.16
17209;BME280;8720;48.488;9.202;2024-03-08T03:33:00;96658.81;;;7.16;61.25
17209;BME280;8720;48.488;9.202;2024-03-08T03:35:28;96651.94;;;7.13;61.36
17209;BME280;8720;48.488;9.202;2024-03-08T03:37:56;96659.75;;;7.12;61.49
17209;BME280;8720;48.488;9.202;2024-03-08T03:40:33;96658.06;;;7.09;61.29
17209;BME280;8720;48.488;9.202;2024-03-08T03:43:02;96655.47;;;7.09;61.45
17209;BME280;8720;48.488;9.202;2024-03-08T03:45:30;96654.63;;;7.07;61.32
17209;BME280;8720;48.488;9.202;2024-03-08T03:48:02;96656.38;;;7.07;61.46
17209;BME280;8720;48.488;9.202;2024-03-08T03:50:30;96652.03;;;7.06;61.36
17209;BME280;8720;48.488;9.202;2024-03-08T03:53:00;96642.50;;;7.06;61.14
17209;BME280;8720;48.488;9.202;2024-03-08T03:55:28;96645.09;;;7.06;61.14
17209;BME280;8720;48.488;9.202;2024-03-08T03:57:55;96650.34;;;7.05;60.95
17209;BME280;8720;48.488;9.202;2024-03-08T04:00:26;96628.88;;;6.91;61.00
17209;BME280;8720;48.488;9.202;2024-03-08T04:02:54;96628.00;;;6.93;61.10
17209;BME280;8720;48.488;9.202;2024-03-08T04:05:25;96638.28;;;6.99;60.99
17209;BME280;8720;48.488;9.202;2024-03-08T04:07:52;96635.72;;;6.98;60.95
17209;BME280;8720;48.488;9.202;2024-03-08T04:10:20;96635.75;;;6.95;61.12
17209;BME280;8720;48.488;9.202;2024-03-08T04:12:47;96640.22;;;6.88;61.56
17209;BME280;8720;48.488;9.202;2024-03-08T04:15:14;96642.78;;;6.90;61.48
17209;BME280;8720;48.488;9.202;2024-03-08T04:17:43;96637.63;;;6.88;61.63
17209;BME280;8720;48.488;9.202;2024-03-08T04:20:11;96638.44;;;6.89;61.75
17209;BME280;8720;48.488;9.202;2024-03-08T04:22:40;96640.16;;;6.91;61.70
17209;BME280;8720;48.488;9.202;2024-03-08T04:25:08;96641.84;;;6.92;61.63
17209;BME280;8720;48.488;9.202;2024-03-08T04:27:36;96639.22;;;6.95;61.69
17209;BME280;8720;48.488;9.202;2024-03-08T04:30:05;96635.72;;;6.96;61.64
17209;BME280;8720;48.488;9.202;2024-03-08T04:32:33;96630.50;;;6.99;61.64
17209;BME280;8720;48.488;9.202;2024-03-08T04:35:02;96626.16;;;7.00;61.57
17209;BME280;8720;48.488;9.202;2024-03-08T04:37:29;96633.03;;;7.02;61.60
17209;BME280;8720;48.488;9.202;2024-03-08T04:39:57;96632.16;;;7.03;61.60
17209;BME280;8720;48.488;9.202;2024-03-08T04:42:24;96623.44;;;7.07;61.51
17209;BME280;8720;48.488;9.202;2024-03-08T04:44:52;96622.50;;;7.10;61.60
17209;BME280;8720;48.488;9.202;2024-03-08T04:47:20;96633.75;;;7.13;61.60
17209;BME280;8720;48.488;9.202;2024-03-08T04:49:47;96631.06;;;7.16;61.57
17209;BME280;8720;48.488;9.202;2024-03-08T04:52:17;96626.66;;;7.20;61.71
17209;BME280;8720;48.488;9.202;2024-03-08T04:54:45;96617.97;;;7.22;61.78
17209;BME280;8720;48.488;9.202;2024-03-08T04:57:12;96617.06;;;7.25;61.84
17209;BME280;8720;48.488;9.202;2024-03-08T04:59:39;96622.16;;;7.29;61.77
17209;BME280;8720;48.488;9.202;2024-03-08T05:02:07;96616.03;;;7.33;61.94
17209;BME280;8720;48.488;9.202;2024-03-08T05:04:34;96618.56;;;7.38;62.05
17209;BME280;8720;48.488;9.202;2024-03-08T05:07:02;96615.91;;;7.40;61.98
17209;BME280;8720;48.488;9.202;2024-03-08T05:09:31;96617.53;;;7.45;62.05
17209;BME280;8720;48.488;9.202;2024-03-08T05:11:59;96616.63;;;7.48;62.11
17209;BME280;8720;48.488;9.202;2024-03-08T05:14:27;96613.09;;;7.52;62.20
17209;BME280;8720;48.488;9.202;2024-03-08T05:16:56;96608.66;;;7.57;62.15
17209;BME280;8720;48.488;9.202;2024-03-08T05:19:23;96608.53;;;7.63;62.00
17209;BME280;8720;48.488;9.202;2024-03-08T05:21:51;96605.81;;;7.69;62.00
17209;BME280;8720;48.488;9.202;2024-03-08T05:24:19;96602.22;;;7.74;61.89
17209;BME280;8720;48.488;9.202;2024-03-08T05:26:47;96603.06;;;7.76;61.90
17209;BME280;8720;48.488;9.202;2024-03-08T05:29:15;96605.63;;;7.78;61.99
17209;BME280;8720;48.488;9.202;2024-03-08T05:31:48;96606.38;;;7.84;61.76
17209;BME280;8720;48.488;9.202;2024-03-08T05:34:16;96609.75;;;7.89;61.90
17209;BME280;8720;48.488;9.202;2024-03-08T05:36:45;96606.25;;;7.90;61.89
17209;BME280;8720;48.488;9.202;2024-03-08T05:39:13;96611.44;;;7.92;61.87
17209;BME280;8720;48.488;9.202;2024-03-08T05:41:41;96603.53;;;7.95;62.04
17209;BME280;8720;48.488;9.202;2024-03-08T05:44:10;96607.81;;;7.99;61.94
17209;BME280;8720;48.488;9.202;2024-03-08T05:46:38;96604.31;;;8.00;61.86
17209;BME280;8720;48.488;9.202;2024-03-08T05:49:06;96604.31;;;8.00;61.88
17209;BME280;8720;48.488;9.202;2024-03-08T05:51:37;96600.84;;;7.99;61.97
17209;BME280;8720;48.488;9.202;2024-03-08T05:54:07;96606.09;;;7.98;61.87
17209;BME280;8720;48.488;9.202;2024-03-08T05:56:36;96600.84;;;7.99;61.96
17209;BME280;8720;48.488;9.202;2024-03-08T05:59:04;96602.34;;;8.11;60.55
17209;BME280;8720;48.488;9.202;2024-03-08T06:01:33;96605.59;;;8.20;61.21
17209;BME280;8720;48.488;9.202;2024-03-08T06:04:03;96607.81;;;8.40;59.18
17209;BME280;8720;48.488;9.202;2024-03-08T06:06:31;96602.53;;;8.43;60.45
17209;BME280;8720;48.488;9.202;2024-03-08T06:08:58;96605.16;;;8.42;60.59
17209;BME280;8720;48.488;9.202;2024-03-08T06:11:27;96606.06;;;8.41;60.81
17209;BME280;8720;48.488;9.202;2024-03-08T06:13:54;96603.44;;;8.42;61.14
17209;BME280;8720;48.488;9.202;2024-03-08T06:16:26;96595.66;;;8.41;61.35
17209;BME280;8720;48.488;9.202;2024-03-08T06:18:57;96593.84;;;8.44;60.96
17209;BME280;8720;48.488;9.202;2024-03-08T06:21:24;96600.66;;;8.50;60.87
17209;BME280;8720;48.488;9.202;2024-03-08T06:23:53;96592.00;;;8.48;61.08
17209;BME280;8720;48.488;9.202;2024-03-08T06:26:21;96601.59;;;8.46;61.03
17209;BME280;8720;48.488;9.202;2024-03-08T06:28:49;96601.66;;;8.44;61.10
17209;BME280;8720;48.488;9.202;2024-03-08T06:31:16;96599.03;;;8.44;61.16
17209;BME280;8720;48.488;9.202;2024-03-08T06:33:44;96597.28;;;8.45;61.27
17209;BME280;8720;48.488;9.202;2024-03-08T06:36:13;96603.31;;;8.47;61.12
17209;BME280;8720;48.488;9.202;2024-03-08T06:38:40;96599.00;;;8.46;61.09
17209;BME280;8720;48.488;9.202;2024-03-08T06:41:09;96608.56;;;8.45;61.19
17209;BME280;8720;48.488;9.202;2024-03-08T06:43:42;96610.31;;;8.45;61.22
17209;BME280;8720;48.488;9.202;2024-03-08T06:46:09;96604.25;;;8.44;61.11
17209;BME280;8720;48.488;9.202;2024-03-08T06:48:38;96611.13;;;8.47;61.19
17209;BME280;8720;48.488;9.202;2024-03-08T06:51:06;96601.69;;;8.41;61.12
17209;BME280;8720;48.488;9.202;2024-03-08T06:53:35;96597.31;;;8.43;61.25
17209;BME280;8720;48.488;9.202;2024-03-08T06:56:03;96605.97;;;8.45;61.22
17209;BME280;8720;48.488;9.202;2024-03-08T06:58:30;96599.88;;;8.45;61.22
17209;BME280;8720;48.488;9.202;2024-03-08T07:00:58;96609.38;;;8.47;61.24
17209;BME280;8720;48.488;9.202;2024-03-08T07:03:26;96604.16;;;8.47;61.22
17209;BME280;8720;48.488;9.202;2024-03-08T07:05:55;96602.44;;;8.48;61.34
17209;BME280;8720;48.488;9.202;2024-03-08T07:08:24;96603.25;;;8.50;61.34
17209;BME280;8720;48.488;9.202;2024-03-08T07:10:54;96599.69;;;8.54;61.35
17209;BME280;8720;48.488;9.202;2024-03-08T07:13:21;96596.13;;;8.58;61.33
17209;BME280;8720;48.488;9.202;2024-03-08T07:15:49;96599.44;;;8.64;61.47
17209;BME280;8720;48.488;9.202;2024-03-08T07:18:18;96594.97;;;8.69;61.26
17209;BME280;8720;48.488;9.202;2024-03-08T07:20:45;96590.59;;;8.71;61.13
17209;BME280;8720;48.488;9.202;2024-03-08T07:23:12;96591.41;;;8.73;61.04
17209;BME280;8720;48.488;9.202;2024-03-08T07:26:01;96596.59;;;8.75;61.06
17209;BME280;8720;48.488;9.202;2024-03-08T07:28:28;96593.06;;;8.76;60.98
17209;BME280;8720;48.488;9.202;2024-03-08T07:30:57;96587.84;;;8.77;60.94
17209;BME280;8720;48.488;9.202;2024-03-08T07:33:38;96592.97;;;8.80;61.03
17209;BME280;8720;48.488;9.202;2024-03-08T07:36:06;96592.00;;;8.84;60.87
17209;BME280;8720;48.488;9.202;2024-03-08T07:38:34;96591.91;;;8.89;60.71
17209;BME280;8720;48.488;9.202;2024-03-08T07:41:03;96590.06;;;8.92;60.85
17209;BME280;8720;48.488;9.202;2024-03-08T07:43:30;96586.50;;;8.96;60.71
17209;BME280;8720;48.488;9.202;2024-03-08T07:45:58;96578.59;;;8.99;60.64
17209;BME280;8720;48.488;9.202;2024-03-08T07:48:26;96581.97;;;9.03;60.59
17209;BME280;8720;48.488;9.202;2024-03-08T07:50:53;96579.41;;;9.01;60.43
17209;BME280;8720;48.488;9.202;2024-03-08T07:53:20;96569.69;;;9.06;60.45
17209;BME280;8720;48.488;9.202;2024-03-08T07:55:47;96573.06;;;9.11;60.47
17209;BME280;8720;48.488;9.202;2024-03-08T07:58:16;96569.47;;;9.15;60.41
17209;BME280;8720;48.488;9.202;2024-03-08T08:00:43;96571.19;;;9.16;60.46
17209;BME280;8720;48.488;9.202;2024-03-08T08:03:11;96569.34;;;9.20;60.54
17209;BME280;8720;48.488;9.202;2024-03-08T08:05:38;96568.31;;;9.26;60.67
17209;BME280;8720;48.488;9.202;2024-03-08T08:08:08;96564.75;;;9.30;60.42
17209;BME280;8720;48.488;9.202;2024-03-08T08:10:36;96565.50;;;9.35;60.52
17209;BME280;8720;48.488;9.202;2024-03-08T08:13:04;96565.34;;;9.39;60.41
17209;BME280;8720;48.488;9.202;2024-03-08T08:15:33;96566.22;;;9.40;60.29
17209;BME280;8720;48.488;9.202;2024-03-08T08:18:00;96561.00;;;9.40;60.55
17209;BME280;8720;48.488;9.202;2024-03-08T08:20:28;96558.22;;;9.46;60.59
17209;BME280;8720;48.488;9.202;2024-03-08T08:22:56;96559.81;;;9.51;60.55
17209;BME280;8720;48.488;9.202;2024-03-08T08:25:25;96553.53;;;9.58;60.37
17209;BME280;8720;48.488;9.202;2024-03-08T08:27:52;96556.88;;;9.63;60.18
17209;BME280;8720;48.488;9.202;2024-03-08T08:30:20;96559.38;;;9.68;60.36
17209;BME280;8720;48.488;9.202;2024-03-08T08:32:49;96552.25;;;9.73;60.13
17209;BME280;8720;48.488;9.202;2024-03-08T08:35:16;96551.31;;;9.75;59.75
17209;BME280;8720;48.488;9.202;2024-03-08T08:37:45;96557.34;;;9.77;59.87
17209;BME280;8720;48.488;9.202;2024-03-08T08:40:14;96552.06;;;9.79;59.87
17209;BME280;8720;48.488;9.202;2024-03-08T08:42:43;96551.13;;;9.81;59.83
17209;BME280;8720;48.488;9.202;2024-03-08T08:45:13;96548.47;;;9.83;59.83
17209;BME280;8720;48.488;9.202;2024-03-08T08:47:42;96552.75;;;9.85;59.90
17209;BME280;8720;48.488;9.202;2024-03-08T08:50:12;96551.81;;;9.88;59.67
17209;BME280;8720;48.488;9.202;2024-03-08T08:52:40;96545.53;;;9.93;59.71
17209;BME280;8720;48.488;9.202;2024-03-08T08:55:09;96549.78;;;9.97;59.70
17209;BME280;8720;48.488;9.202;2024-03-08T08:57:40;96541.75;;;10.03;59.70
17209;BME280;8720;48.488;9.202;2024-03-08T09:00:08;96542.44;;;10.12;59.67
17209;BME280;8720;48.488;9.202;2024-03-08T09:02:41;96541.50;;;10.13;59.61
17209;BME280;8720;48.488;9.202;2024-03-08T09:05:08;96545.50;;;10.24;59.46
17209;BME280;8720;48.488;9.202;2024-03-08T09:07:38;96536.66;;;10.30;59.37
17209;BME280;8720;48.488;9.202;2024-03-08T09:10:09;96534.69;;;10.36;59.57
17209;BME280;8720;48.488;9.202;2024-03-08T09:12:38;96534.31;;;10.48;59.49
17209;BME280;8720;48.488;9.202;2024-03-08T09:15:08;96535.75;;;10.58;59.39
17209;BME280;8720;48.488;9.202;2024-03-08T09:17:37;96527.59;;;10.67;59.38
17209;BME280;8720;48.488;9.202;2024-03-08T09:20:07;96531.56;;;10.79;59.42
17209;BME280;8720;48.488;9.202;2024-03-08T09:22:35;96528.72;;;10.86;59.44
17209;BME280;8720;48.488;9.202;2024-03-08T09:25:05;96521.41;;;10.96;58.94
17209;BME280;8720;48.488;9.202;2024-03-08T09:27:33;96524.56;;;11.06;59.24
17209;BME280;8720;48.488;9.202;2024-03-08T09:30:00;96521.75;;;11.12;59.07
17209;BME280;8720;48.488;9.202;2024-03-08T09:32:28;96512.88;;;11.16;58.95
17209;BME280;8720;48.488;9.202;2024-03-08T09:34:55;96514.56;;;11.17;58.60
17209;BME280;8720;48.488;9.202;2024-03-08T09:37:23;96509.25;;;11.20;58.67
17209;BME280;8720;48.488;9.202;2024-03-08T09:39:50;96516.94;;;11.24;58.51
17209;BME280;8720;48.488;9.202;2024-03-08T09:42:20;96517.72;;;11.26;58.54
17209;BME280;8720;48.488;9.202;2024-03-08T09:44:47;96508.06;;;11.28;58.52
17209;BME280;8720;48.488;9.202;2024-03-08T09:47:15;96509.66;;;11.32;58.73
17209;BME280;8720;48.488;9.202;2024-03-08T09:49:43;96514.63;;;11.40;58.62
17209;BME280;8720;48.488;9.202;2024-03-08T09:52:11;96507.38;;;11.48;58.58
17209;BME280;8720;48.488;9.202;2024-03-08T09:54:39;96505.41;;;11.54;58.36
17209;BME280;8720;48.488;9.202;2024-03-08T09:57:11;96506.00;;;11.61;58.56
17209;BME280;8720;48.488;9.202;2024-03-08T09:59:40;96501.44;;;11.67;58.51
17209;BME280;8720;48.488;9.202;2024-03-08T10:02:15;96501.16;;;11.75;58.59
17209;BME280;8720;48.488;9.202;2024-03-08T10:04:44;96498.31;;;11.81;58.10
17209;BME280;8720;48.488;9.202;2024-03-08T10:07:13;96487.69;;;11.85;58.28
17209;BME280;8720;48.488;9.202;2024-03-08T10:09:41;96485.59;;;11.94;58.30
17209;BME280;8720;48.488;9.202;2024-03-08T10:12:13;96488.00;;;12.00;57.89
17209;BME280;8720;48.488;9.202;2024-03-08T10:14:43;96486.94;;;12.05;57.74
17209;BME280;8720;48.488;9.202;2024-03-08T10:17:12;96479.78;;;12.09;57.90
17209;BME280;8720;48.488;9.202;2024-03-08T10:19:50;96484.03;;;12.11;57.72
17209;BME280;8720;48.488;9.202;2024-03-08T10:22:19;96478.69;;;12.14;57.63
17209;BME280;8720;48.488;9.202;2024-03-08T10:24:48;96471.56;;;12.18;57.64
17209;BME280;8720;48.488;9.202;2024-03-08T10:27:17;96480.06;;;12.24;57.53
17209;BME280;8720;48.488;9.202;2024-03-08T10:29:48;96462.34;;;12.29;57.31
17209;BME280;8720;48.488;9.202;2024-03-08T10:32:17;96473.47;;;12.36;57.68
17209;BME280;8720;48.488;9.202;2024-03-08T10:34:45;96473.41;;;12.37;57.28
17209;BME280;8720;48.488;9.202;2024-03-08T10:37:15;96470.84;;;12.36;57.16
17209;BME280;8720;48.488;9.202;2024-03-08T10:40:02;96466.44;;;12.36;57.49
17209;BME280;8720;48.488;9.202;2024-03-08T10:42:41;96463.78;;;12.38;57.67
17209;BME280;8720;48.488;9.202;2024-03-08T10:45:29;96454.00;;;12.41;57.73
17209;BME280;8720;48.488;9.202;2024-03-08T10:48:27;96451.16;;;12.47;57.73
17209;BME280;8720;48.488;9.202;2024-03-08T10:50:57;96438.69;;;12.52;57.72
17209;BME280;8720;48.488;9.202;2024-03-08T10:53:28;96442.88;;;12.56;57.34
17209;BME280;8720;48.488;9.202;2024-03-08T10:55:57;96445.44;;;12.58;57.34
17209;BME280;8720;48.488;9.202;2024-03-08T10:58:27;96445.50;;;12.56;57.33
17209;BME280;8720;48.488;9.202;2024-03-08T11:00:57;96445.50;;;12.56;57.41
17209;BME280;8720;48.488;9.202;2024-03-08T11:03:45;96441.16;;;12.55;57.58
17209;BME280;8720;48.488;9.202;2024-03-08T11:06:17;96437.16;;;12.47;57.32
17209;BME280;8720;48.488;9.202;2024-03-08T11:08:49;96439.97;;;12.42;57.67
17209;BME280;8720;48.488;9.202;2024-03-08T11:11:28;96439.31;;;12.37;57.96
17209;BME280;8720;48.488;9.202;2024-03-08T11:13:58;96434.84;;;12.39;57.87
17209;BME280;8720;48.488;9.202;2024-03-08T11:16:44;96427.63;;;12.44;58.45
17209;BME280;8720;48.488;9.202;2024-03-08T11:19:26;96427.47;;;12.49;58.29
17209;BME280;8720;48.488;9.202;2024-03-08T11:21:59;96421.19;;;12.53;57.79
17209;BME280;8720;48.488;9.202;2024-03-08T11:24:26;96409.69;;;12.55;57.60
17209;BME280;8720;48.488;9.202;2024-03-08T11:26:58;96414.03;;;12.56;57.50
17209;BME280;8720;48.488;9.202;2024-03-08T11:29:34;96414.09;;;12.55;57.55
17209;BME280;8720;48.488;9.202;2024-03-08T11:32:09;96418.72;;;12.48;57.51
17209;BME280;8720;48.488;9.202;2024-03-08T11:34:37;96422.59;;;12.40;58.05
17209;BME280;8720;48.488;9.202;2024-03-08T11:37:06;96407.94;;;12.34;58.27
17209;BME280;8720;48.488;9.202;2024-03-08T11:39:39;96404.72;;;12.28;58.12
17209;BME280;8720;48.488;9.202;2024-03-08T11:42:08;96398.75;;;12.24;58.18
17209;BME280;8720;48.488;9.202;2024-03-08T11:44:37;96403.13;;;12.24;58.54
17209;BME280;8720;48.488;9.202;2024-03-08T11:47:11;96398.75;;;12.24;58.34
17209;BME280;8720;48.488;9.202;2024-03-08T11:49:38;96396.13;;;12.24;58.80
17209;BME280;8720;48.488;9.202;2024-03-08T11:52:11;96390.03;;;12.24;58.33
17209;BME280;8720;48.488;9.202;2024-03-08T11:54:40;96380.41;;;12.24;58.56
17209;BME280;8720;48.488;9.202;2024-03-08T11:57:07;96379.47;;;12.25;58.84
17209;BME280;8720;48.488;9.202;2024-03-08T11:59:36;96379.22;;;12.31;58.62
17209;BME280;8720;48.488;9.202;2024-03-08T12:02:04;96366.66;;;12.39;58.38
17209;BME280;8720;48.488;9.202;2024-03-08T12:04:34;96361.00;;;12.48;58.37
17209;BME280;8720;48.488;9.202;2024-03-08T12:07:02;96357.94;;;12.59;58.57
17209;BME280;8720;48.488;9.202;2024-03-08T12:09:35;96356.69;;;12.67;58.60
17209;BME280;8720;48.488;9.202;2024-03-08T12:12:04;96354.66;;;12.74;58.37
17209;BME280;8720;48.488;9.202;2024-03-08T12:14:33;96352.63;;;12.80;58.38
17209;BME280;8720;48.488;9.202;2024-03-08T12:17:04;96346.47;;;12.82;58.26
17209;BME280;8720;48.488;9.202;2024-03-08T12:19:33;96348.59;;;12.92;58.08
17209;BME280;8720;48.488;9.202;2024-03-08T12:22:08;96350.13;;;12.98;58.13
17209;BME280;8720;48.488;9.202;2024-03-08T12:24:37;96338.78;;;12.97;57.90
17209;BME280;8720;48.488;9.202;2024-03-08T12:27:18;96338.78;;;12.97;57.91
17209;BME280;8720;48.488;9.202;2024-03-08T12:29:46;96329.88;;;13.00;58.09
17209;BME280;8720;48.488;9.202;2024-03-08T12:32:14;96328.84;;;13.04;58.29
17209;BME280;8720;48.488;9.202;2024-03-08T12:34:52;96323.34;;;13.10;58.12
17209;BME280;8720;48.488;9.202;2024-03-08T12:37:19;96318.78;;;13.13;57.91
17209;BME280;8720;48.488;9.202;2024-03-08T12:39:47;96319.56;;;13.15;57.65
17209;BME280;8720;48.488;9.202;2024-03-08T12:42:14;96309.81;;;13.19;57.93
17209;BME280;8720;48.488;9.202;2024-03-08T12:44:41;96305.34;;;13.21;57.62
17209;BME280;8720;48.488;9.202;2024-03-08T12:47:09;96310.44;;;13.24;57.61
17209;BME280;8720;48.488;9.202;2024-03-08T12:49:36;96296.25;;;13.28;57.76
17209;BME280;8720;48.488;9.202;2024-03-08T12:52:10;96297.81;;;13.32;57.42
17209;BME280;8720;48.488;9.202;2024-03-08T12:54:38;96296.78;;;13.34;57.51
17209;BME280;8720;48.488;9.202;2024-03-08T12:57:05;96290.47;;;13.38;57.47
17209;BME280;8720;48.488;9.202;2024-03-08T12:59:36;96283.34;;;13.42;57.30
17209;BME280;8720;48.488;9.202;2024-03-08T13:02:05;96282.41;;;13.43;57.50
17209;BME280;8720;48.488;9.202;2024-03-08T13:04:37;96280.41;;;13.48;56.95
17209;BME280;8720;48.488;9.202;2024-03-08T13:07:06;96271.53;;;13.50;57.18
17209;BME280;8720;48.488;9.202;2024-03-08T13:09:34;96266.19;;;13.52;57.36
17209;BME280;8720;48.488;9.202;2024-03-08T13:12:04;96262.50;;;13.56;57.50
17209;BME280;8720;48.488;9.202;2024-03-08T13:14:32;96251.63;;;13.63;57.59
17209;BME280;8720;48.488;9.202;2024-03-08T13:17:01;96249.56;;;13.70;57.44
17209;BME280;8720;48.488;9.202;2024-03-08T13:19:30;96249.34;;;13.75;57.51
17209;BME280;8720;48.488;9.202;2024-03-08T13:21:57;96243.91;;;13.78;57.23
17209;BME280;8720;48.488;9.202;2024-03-08T13:24:26;96237.59;;;13.82;57.31
17209;BME280;8720;48.488;9.202;2024-03-08T13:26:55;96239.06;;;13.87;57.55
17209;BME280;8720;48.488;9.202;2024-03-08T13:29:22;96235.34;;;13.91;57.15
17209;BME280;8720;48.488;9.202;2024-03-08T13:31:50;96231.56;;;13.97;57.31
17209;BME280;8720;48.488;9.202;2024-03-08T13:34:18;96231.25;;;14.03;57.07